SAZM/MDD METAR and TAF weather

Enter ICAO airport designator
Station Type Date Time Source
SAZM METAR 2020/07/03 12:00 UTC NOAA

SAZM 031200Z 30008KT 9999 NSC 03/03 Q1012


Station Type Date Time Source
SAZM Decoded METAR 2020/07/03 12:00 UTC NOAA

Mar Del Plata Aerodrome, Argentina (SAZM) 37-56S 057-35W 21M
Jul 03, 2020 - 08:00 AM EDT / 2020.07.03 1200 UTC
Wind: from the WNW (300 degrees) at 9 MPH (8 KT):0
Visibility: greater than 7 mile(s):0
Temperature: 37 F (3 C)
Dew Point: 37 F (3 C)
Relative Humidity: 100%
Pressure (altimeter): 29.88 in. Hg (1012 hPa)
ob: SAZM 031200Z 30008KT 9999 NSC 03/03 Q1012
cycle: 12

Station Type Date Time Source
SAZM TAF 2020/07/03 12:15 UTC NOAA

TAF SAZM 031100Z 0312/0412 32010KT 7000 BR NSC TX12/0318Z TN03/0312Z
BECMG 0312/0314 9999 SCT030 BKN080
BECMG 0319/0322 8000 RADZ BKN015 BKN030

Example: see airport list